sensor_id;sensor_type;location;lat;lon;timestamp;P1;durP1;ratioP1;P2;durP2;ratioP2
25187;SDS011;13141;50.414;8.050;2023-05-27T00:01:51;0.17;;;0.17;;
25187;SDS011;13141;50.414;8.050;2023-05-27T00:04:16;0.10;;;0.10;;
25187;SDS011;13141;50.414;8.050;2023-05-27T00:06:42;0.10;;;0.10;;
25187;SDS011;13141;50.414;8.050;2023-05-27T00:09:08;0.10;;;0.10;;
25187;SDS011;13141;50.414;8.050;2023-05-27T00:11:35;0.10;;;0.10;;
25187;SDS011;13141;50.414;8.050;2023-05-27T00:14:00;0.10;;;0.10;;
25187;SDS011;13141;50.414;8.050;2023-05-27T00:16:26;0.10;;;0.10;;
25187;SDS011;13141;50.414;8.050;2023-05-27T00:18:52;0.10;;;0.10;;
25187;SDS011;13141;50.414;8.050;2023-05-27T00:21:18;0.10;;;0.10;;
25187;SDS011;13141;50.414;8.050;2023-05-27T00:23:44;0.10;;;0.10;;
25187;SDS011;13141;50.414;8.050;2023-05-27T00:26:11;0.10;;;0.10;;
25187;SDS011;13141;50.414;8.050;2023-05-27T00:28:38;0.20;;;0.20;;
25187;SDS011;13141;50.414;8.050;2023-05-27T00:31:04;0.10;;;0.10;;
25187;SDS011;13141;50.414;8.050;2023-05-27T00:33:30;0.10;;;0.10;;
25187;SDS011;13141;50.414;8.050;2023-05-27T00:35:56;0.10;;;0.10;;
25187;SDS011;13141;50.414;8.050;2023-05-27T00:38:21;0.10;;;0.10;;
25187;SDS011;13141;50.414;8.050;2023-05-27T00:40:47;0.10;;;0.10;;
25187;SDS011;13141;50.414;8.050;2023-05-27T00:43:17;0.10;;;0.10;;
25187;SDS011;13141;50.414;8.050;2023-05-27T00:45:44;0.10;;;0.10;;
25187;SDS011;13141;50.414;8.050;2023-05-27T00:48:10;0.10;;;0.10;;
25187;SDS011;13141;50.414;8.050;2023-05-27T00:50:36;0.10;;;0.10;;
25187;SDS011;13141;50.414;8.050;2023-05-27T00:53:01;0.10;;;0.10;;
25187;SDS011;13141;50.414;8.050;2023-05-27T00:55:27;0.10;;;0.10;;
25187;SDS011;13141;50.414;8.050;2023-05-27T00:57:54;0.10;;;0.10;;
25187;SDS011;13141;50.414;8.050;2023-05-27T01:00:19;0.10;;;0.10;;
25187;SDS011;13141;50.414;8.050;2023-05-27T01:02:47;0.10;;;0.10;;
25187;SDS011;13141;50.414;8.050;2023-05-27T01:05:14;0.10;;;0.10;;
25187;SDS011;13141;50.414;8.050;2023-05-27T01:07:43;0.10;;;0.10;;
25187;SDS011;13141;50.414;8.050;2023-05-27T01:10:35;0.10;;;0.10;;
25187;SDS011;13141;50.414;8.050;2023-05-27T01:13:06;0.10;;;0.10;;
25187;SDS011;13141;50.414;8.050;2023-05-27T01:15:38;0.10;;;0.10;;
25187;SDS011;13141;50.414;8.050;2023-05-27T01:18:06;0.10;;;0.10;;
25187;SDS011;13141;50.414;8.050;2023-05-27T01:20:34;0.00;;;0.00;;
25187;SDS011;13141;50.414;8.050;2023-05-27T01:23:02;0.10;;;0.10;;
25187;SDS011;13141;50.414;8.050;2023-05-27T01:25:28;0.10;;;0.10;;
25187;SDS011;13141;50.414;8.050;2023-05-27T01:27:54;0.10;;;0.10;;
25187;SDS011;13141;50.414;8.050;2023-05-27T01:30:19;0.10;;;0.10;;
25187;SDS011;13141;50.414;8.050;2023-05-27T01:32:46;0.10;;;0.10;;
25187;SDS011;13141;50.414;8.050;2023-05-27T01:35:17;0.10;;;0.10;;
25187;SDS011;13141;50.414;8.050;2023-05-27T01:37:47;0.10;;;0.10;;
25187;SDS011;13141;50.414;8.050;2023-05-27T01:40:17;0.10;;;0.10;;
25187;SDS011;13141;50.414;8.050;2023-05-27T01:42:43;0.10;;;0.10;;
25187;SDS011;13141;50.414;8.050;2023-05-27T01:45:10;0.10;;;0.10;;
25187;SDS011;13141;50.414;8.050;2023-05-27T01:47:36;0.10;;;0.10;;
25187;SDS011;13141;50.414;8.050;2023-05-27T01:50:02;0.10;;;0.10;;
25187;SDS011;13141;50.414;8.050;2023-05-27T01:52:28;0.10;;;0.10;;
25187;SDS011;13141;50.414;8.050;2023-05-27T01:54:53;0.10;;;0.10;;
25187;SDS011;13141;50.414;8.050;2023-05-27T01:57:21;0.10;;;0.10;;
25187;SDS011;13141;50.414;8.050;2023-05-27T01:59:49;0.10;;;0.10;;
25187;SDS011;13141;50.414;8.050;2023-05-27T02:02:14;0.10;;;0.10;;
25187;SDS011;13141;50.414;8.050;2023-05-27T02:04:40;0.10;;;0.10;;
25187;SDS011;13141;50.414;8.050;2023-05-27T02:07:06;0.10;;;0.10;;
25187;SDS011;13141;50.414;8.050;2023-05-27T02:09:31;0.10;;;0.10;;
25187;SDS011;13141;50.414;8.050;2023-05-27T02:11:57;0.10;;;0.10;;
25187;SDS011;13141;50.414;8.050;2023-05-27T02:14:24;0.10;;;0.10;;
25187;SDS011;13141;50.414;8.050;2023-05-27T02:16:49;0.10;;;0.10;;
25187;SDS011;13141;50.414;8.050;2023-05-27T02:19:15;0.10;;;0.10;;
25187;SDS011;13141;50.414;8.050;2023-05-27T02:21:41;0.10;;;0.10;;
25187;SDS011;13141;50.414;8.050;2023-05-27T02:24:07;0.10;;;0.10;;
25187;SDS011;13141;50.414;8.050;2023-05-27T02:26:33;0.10;;;0.10;;
25187;SDS011;13141;50.414;8.050;2023-05-27T02:28:58;0.10;;;0.10;;
25187;SDS011;13141;50.414;8.050;2023-05-27T02:31:25;0.10;;;0.10;;
25187;SDS011;13141;50.414;8.050;2023-05-27T02:33:51;0.10;;;0.10;;
25187;SDS011;13141;50.414;8.050;2023-05-27T02:36:17;0.10;;;0.10;;
25187;SDS011;13141;50.414;8.050;2023-05-27T02:38:42;0.10;;;0.10;;
25187;SDS011;13141;50.414;8.050;2023-05-27T02:41:08;0.10;;;0.10;;
25187;SDS011;13141;50.414;8.050;2023-05-27T02:43:34;0.10;;;0.10;;
25187;SDS011;13141;50.414;8.050;2023-05-27T02:46:00;0.10;;;0.10;;
25187;SDS011;13141;50.414;8.050;2023-05-27T02:48:27;0.10;;;0.10;;
25187;SDS011;13141;50.414;8.050;2023-05-27T02:50:53;0.10;;;0.10;;
25187;SDS011;13141;50.414;8.050;2023-05-27T02:53:18;0.10;;;0.10;;
25187;SDS011;13141;50.414;8.050;2023-05-27T02:55:44;0.15;;;0.15;;
25187;SDS011;13141;50.414;8.050;2023-05-27T02:58:10;0.10;;;0.10;;
25187;SDS011;13141;50.414;8.050;2023-05-27T03:00:35;0.10;;;0.10;;
25187;SDS011;13141;50.414;8.050;2023-05-27T03:03:01;0.10;;;0.10;;
25187;SDS011;13141;50.414;8.050;2023-05-27T03:05:28;0.10;;;0.10;;
25187;SDS011;13141;50.414;8.050;2023-05-27T03:07:54;0.10;;;0.10;;
25187;SDS011;13141;50.414;8.050;2023-05-27T03:10:19;0.10;;;0.10;;
25187;SDS011;13141;50.414;8.050;2023-05-27T03:12:45;0.10;;;0.10;;
25187;SDS011;13141;50.414;8.050;2023-05-27T03:15:11;0.10;;;0.10;;
25187;SDS011;13141;50.414;8.050;2023-05-27T03:17:36;0.10;;;0.10;;
25187;SDS011;13141;50.414;8.050;2023-05-27T03:20:02;0.10;;;0.10;;
25187;SDS011;13141;50.414;8.050;2023-05-27T03:22:30;0.17;;;0.17;;
25187;SDS011;13141;50.414;8.050;2023-05-27T03:24:56;0.20;;;0.20;;
25187;SDS011;13141;50.414;8.050;2023-05-27T03:27:21;0.10;;;0.10;;
25187;SDS011;13141;50.414;8.050;2023-05-27T03:29:47;0.10;;;0.10;;
25187;SDS011;13141;50.414;8.050;2023-05-27T03:32:13;0.10;;;0.10;;
25187;SDS011;13141;50.414;8.050;2023-05-27T03:34:38;0.10;;;0.10;;
25187;SDS011;13141;50.414;8.050;2023-05-27T03:37:04;0.10;;;0.10;;
25187;SDS011;13141;50.414;8.050;2023-05-27T03:39:31;0.10;;;0.10;;
25187;SDS011;13141;50.414;8.050;2023-05-27T03:41:57;0.10;;;0.10;;
25187;SDS011;13141;50.414;8.050;2023-05-27T03:44:23;0.10;;;0.10;;
25187;SDS011;13141;50.414;8.050;2023-05-27T03:46:48;0.10;;;0.10;;
25187;SDS011;13141;50.414;8.050;2023-05-27T03:49:14;0.10;;;0.10;;
25187;SDS011;13141;50.414;8.050;2023-05-27T03:51:40;0.10;;;0.10;;
25187;SDS011;13141;50.414;8.050;2023-05-27T03:54:05;0.10;;;0.10;;
25187;SDS011;13141;50.414;8.050;2023-05-27T03:56:32;0.10;;;0.10;;
25187;SDS011;13141;50.414;8.050;2023-05-27T03:58:58;0.10;;;0.10;;
25187;SDS011;13141;50.414;8.050;2023-05-27T04:01:23;0.10;;;0.10;;
25187;SDS011;13141;50.414;8.050;2023-05-27T04:03:49;0.10;;;0.10;;
25187;SDS011;13141;50.414;8.050;2023-05-27T04:06:15;0.10;;;0.10;;
25187;SDS011;13141;50.414;8.050;2023-05-27T04:08:41;0.10;;;0.10;;
25187;SDS011;13141;50.414;8.050;2023-05-27T04:11:10;0.10;;;0.10;;
25187;SDS011;13141;50.414;8.050;2023-05-27T04:13:38;0.10;;;0.10;;
25187;SDS011;13141;50.414;8.050;2023-05-27T04:16:04;0.10;;;0.10;;
25187;SDS011;13141;50.414;8.050;2023-05-27T04:18:29;0.10;;;0.10;;
25187;SDS011;13141;50.414;8.050;2023-05-27T04:20:55;0.10;;;0.10;;
25187;SDS011;13141;50.414;8.050;2023-05-27T04:23:21;0.10;;;0.10;;
25187;SDS011;13141;50.414;8.050;2023-05-27T04:25:47;0.10;;;0.10;;
25187;SDS011;13141;50.414;8.050;2023-05-27T04:28:12;0.10;;;0.10;;
25187;SDS011;13141;50.414;8.050;2023-05-27T04:30:39;0.10;;;0.10;;
25187;SDS011;13141;50.414;8.050;2023-05-27T04:33:05;0.10;;;0.10;;
25187;SDS011;13141;50.414;8.050;2023-05-27T04:35:34;0.10;;;0.10;;
25187;SDS011;13141;50.414;8.050;2023-05-27T04:38:00;0.10;;;0.10;;
25187;SDS011;13141;50.414;8.050;2023-05-27T04:40:25;0.10;;;0.10;;
25187;SDS011;13141;50.414;8.050;2023-05-27T04:42:51;0.10;;;0.10;;
25187;SDS011;13141;50.414;8.050;2023-05-27T04:45:16;0.10;;;0.10;;
25187;SDS011;13141;50.414;8.050;2023-05-27T04:47:44;0.10;;;0.10;;
25187;SDS011;13141;50.414;8.050;2023-05-27T04:50:09;0.10;;;0.10;;
25187;SDS011;13141;50.414;8.050;2023-05-27T04:52:35;0.10;;;0.10;;
25187;SDS011;13141;50.414;8.050;2023-05-27T04:55:01;0.10;;;0.10;;
25187;SDS011;13141;50.414;8.050;2023-05-27T04:57:27;0.10;;;0.10;;
25187;SDS011;13141;50.414;8.050;2023-05-27T04:59:53;0.10;;;0.10;;
25187;SDS011;13141;50.414;8.050;2023-05-27T05:02:21;0.10;;;0.10;;
25187;SDS011;13141;50.414;8.050;2023-05-27T05:04:48;0.10;;;0.10;;
25187;SDS011;13141;50.414;8.050;2023-05-27T05:07:14;0.10;;;0.10;;
25187;SDS011;13141;50.414;8.050;2023-05-27T05:09:41;0.10;;;0.10;;
25187;SDS011;13141;50.414;8.050;2023-05-27T05:12:06;0.10;;;0.10;;
25187;SDS011;13141;50.414;8.050;2023-05-27T05:14:32;0.20;;;0.20;;
25187;SDS011;13141;50.414;8.050;2023-05-27T05:16:58;0.10;;;0.10;;
25187;SDS011;13141;50.414;8.050;2023-05-27T05:19:23;0.10;;;0.10;;
25187;SDS011;13141;50.414;8.050;2023-05-27T05:21:51;0.10;;;0.10;;
25187;SDS011;13141;50.414;8.050;2023-05-27T05:24:16;0.10;;;0.10;;
25187;SDS011;13141;50.414;8.050;2023-05-27T05:26:42;0.10;;;0.10;;
25187;SDS011;13141;50.414;8.050;2023-05-27T05:29:07;0.10;;;0.10;;
25187;SDS011;13141;50.414;8.050;2023-05-27T05:31:33;0.10;;;0.10;;
25187;SDS011;13141;50.414;8.050;2023-05-27T05:33:59;0.10;;;0.10;;
25187;SDS011;13141;50.414;8.050;2023-05-27T05:36:24;0.10;;;0.10;;
25187;SDS011;13141;50.414;8.050;2023-05-27T05:38:51;0.10;;;0.10;;
25187;SDS011;13141;50.414;8.050;2023-05-27T05:41:17;0.10;;;0.10;;
25187;SDS011;13141;50.414;8.050;2023-05-27T05:43:43;0.10;;;0.10;;
25187;SDS011;13141;50.414;8.050;2023-05-27T05:46:08;0.10;;;0.10;;
25187;SDS011;13141;50.414;8.050;2023-05-27T05:48:34;0.10;;;0.10;;
25187;SDS011;13141;50.414;8.050;2023-05-27T05:51:01;0.10;;;0.10;;
25187;SDS011;13141;50.414;8.050;2023-05-27T05:53:26;0.10;;;0.10;;
25187;SDS011;13141;50.414;8.050;2023-05-27T05:55:54;0.10;;;0.10;;
25187;SDS011;13141;50.414;8.050;2023-05-27T05:58:20;0.10;;;0.10;;
25187;SDS011;13141;50.414;8.050;2023-05-27T06:00:45;0.10;;;0.10;;
25187;SDS011;13141;50.414;8.050;2023-05-27T06:03:11;0.10;;;0.10;;
25187;SDS011;13141;50.414;8.050;2023-05-27T06:05:36;0.10;;;0.10;;
25187;SDS011;13141;50.414;8.050;2023-05-27T06:08:02;0.10;;;0.10;;
25187;SDS011;13141;50.414;8.050;2023-05-27T06:10:28;0.10;;;0.10;;
25187;SDS011;13141;50.414;8.050;2023-05-27T06:12:55;0.10;;;0.10;;
25187;SDS011;13141;50.414;8.050;2023-05-27T06:15:21;0.10;;;0.10;;
25187;SDS011;13141;50.414;8.050;2023-05-27T06:17:47;0.10;;;0.10;;
25187;SDS011;13141;50.414;8.050;2023-05-27T06:20:12;0.10;;;0.10;;
25187;SDS011;13141;50.414;8.050;2023-05-27T06:22:38;0.10;;;0.10;;
25187;SDS011;13141;50.414;8.050;2023-05-27T06:25:04;0.10;;;0.10;;
25187;SDS011;13141;50.414;8.050;2023-05-27T06:27:30;0.10;;;0.10;;
25187;SDS011;13141;50.414;8.050;2023-05-27T06:29:58;0.10;;;0.10;;
25187;SDS011;13141;50.414;8.050;2023-05-27T06:32:24;0.10;;;0.10;;
25187;SDS011;13141;50.414;8.050;2023-05-27T06:34:50;0.10;;;0.10;;
25187;SDS011;13141;50.414;8.050;2023-05-27T06:37:15;0.10;;;0.10;;
25187;SDS011;13141;50.414;8.050;2023-05-27T06:39:41;0.10;;;0.10;;
25187;SDS011;13141;50.414;8.050;2023-05-27T06:42:10;0.10;;;0.10;;
25187;SDS011;13141;50.414;8.050;2023-05-27T06:44:36;0.10;;;0.10;;
25187;SDS011;13141;50.414;8.050;2023-05-27T06:47:03;0.10;;;0.10;;
25187;SDS011;13141;50.414;8.050;2023-05-27T06:49:29;0.10;;;0.10;;
25187;SDS011;13141;50.414;8.050;2023-05-27T06:51:55;0.10;;;0.10;;
25187;SDS011;13141;50.414;8.050;2023-05-27T06:54:20;0.10;;;0.10;;
25187;SDS011;13141;50.414;8.050;2023-05-27T06:56:46;0.10;;;0.10;;
25187;SDS011;13141;50.414;8.050;2023-05-27T06:59:12;0.10;;;0.10;;
25187;SDS011;13141;50.414;8.050;2023-05-27T07:01:38;0.10;;;0.10;;
25187;SDS011;13141;50.414;8.050;2023-05-27T07:04:08;0.10;;;0.10;;
25187;SDS011;13141;50.414;8.050;2023-05-27T07:06:40;0.10;;;0.10;;
25187;SDS011;13141;50.414;8.050;2023-05-27T07:09:05;0.10;;;0.10;;
25187;SDS011;13141;50.414;8.050;2023-05-27T07:11:31;0.10;;;0.10;;
25187;SDS011;13141;50.414;8.050;2023-05-27T07:13:57;0.10;;;0.10;;
25187;SDS011;13141;50.414;8.050;2023-05-27T07:16:29;0.10;;;0.10;;
25187;SDS011;13141;50.414;8.050;2023-05-27T07:18:55;0.10;;;0.10;;
25187;SDS011;13141;50.414;8.050;2023-05-27T07:21:22;0.10;;;0.10;;
25187;SDS011;13141;50.414;8.050;2023-05-27T07:23:48;0.10;;;0.10;;
25187;SDS011;13141;50.414;8.050;2023-05-27T07:26:14;0.10;;;0.10;;
25187;SDS011;13141;50.414;8.050;2023-05-27T07:28:40;0.10;;;0.10;;
25187;SDS011;13141;50.414;8.050;2023-05-27T07:31:06;0.10;;;0.10;;
25187;SDS011;13141;50.414;8.050;2023-05-27T07:33:31;0.10;;;0.10;;
25187;SDS011;13141;50.414;8.050;2023-05-27T07:35:57;0.10;;;0.10;;
25187;SDS011;13141;50.414;8.050;2023-05-27T07:38:24;0.10;;;0.10;;
25187;SDS011;13141;50.414;8.050;2023-05-27T07:40:53;0.10;;;0.10;;
25187;SDS011;13141;50.414;8.050;2023-05-27T07:43:18;0.10;;;0.10;;
25187;SDS011;13141;50.414;8.050;2023-05-27T07:45:44;0.10;;;0.10;;
25187;SDS011;13141;50.414;8.050;2023-05-27T07:48:10;0.10;;;0.10;;
25187;SDS011;13141;50.414;8.050;2023-05-27T07:50:36;0.10;;;0.10;;
25187;SDS011;13141;50.414;8.050;2023-05-27T07:53:01;0.10;;;0.10;;
25187;SDS011;13141;50.414;8.050;2023-05-27T07:55:29;0.10;;;0.10;;
25187;SDS011;13141;50.414;8.050;2023-05-27T07:57:54;0.10;;;0.10;;
25187;SDS011;13141;50.414;8.050;2023-05-27T08:00:20;0.10;;;0.10;;
25187;SDS011;13141;50.414;8.050;2023-05-27T08:02:46;0.10;;;0.10;;
25187;SDS011;13141;50.414;8.050;2023-05-27T08:05:11;0.17;;;0.17;;
25187;SDS011;13141;50.414;8.050;2023-05-27T08:07:37;0.10;;;0.10;;
25187;SDS011;13141;50.414;8.050;2023-05-27T08:10:03;0.10;;;0.10;;
25187;SDS011;13141;50.414;8.050;2023-05-27T08:12:31;0.10;;;0.10;;
25187;SDS011;13141;50.414;8.050;2023-05-27T08:14:57;0.10;;;0.10;;
25187;SDS011;13141;50.414;8.050;2023-05-27T08:17:22;0.10;;;0.10;;
25187;SDS011;13141;50.414;8.050;2023-05-27T08:19:48;0.10;;;0.10;;
25187;SDS011;13141;50.414;8.050;2023-05-27T08:22:14;0.10;;;0.10;;
25187;SDS011;13141;50.414;8.050;2023-05-27T08:24:40;0.10;;;0.10;;
25187;SDS011;13141;50.414;8.050;2023-05-27T08:27:14;0.10;;;0.10;;
25187;SDS011;13141;50.414;8.050;2023-05-27T08:29:41;0.10;;;0.10;;
25187;SDS011;13141;50.414;8.050;2023-05-27T08:32:07;0.10;;;0.10;;
25187;SDS011;13141;50.414;8.050;2023-05-27T08:34:33;0.10;;;0.10;;
25187;SDS011;13141;50.414;8.050;2023-05-27T08:36:58;0.10;;;0.10;;
25187;SDS011;13141;50.414;8.050;2023-05-27T08:39:24;0.10;;;0.10;;
25187;SDS011;13141;50.414;8.050;2023-05-27T08:41:50;0.10;;;0.10;;
25187;SDS011;13141;50.414;8.050;2023-05-27T08:44:17;0.10;;;0.10;;
25187;SDS011;13141;50.414;8.050;2023-05-27T08:46:44;0.10;;;0.10;;
25187;SDS011;13141;50.414;8.050;2023-05-27T08:49:12;0.10;;;0.10;;
25187;SDS011;13141;50.414;8.050;2023-05-27T08:51:38;0.10;;;0.10;;
25187;SDS011;13141;50.414;8.050;2023-05-27T08:54:05;0.10;;;0.10;;
25187;SDS011;13141;50.414;8.050;2023-05-27T08:56:30;0.10;;;0.10;;
25187;SDS011;13141;50.414;8.050;2023-05-27T08:58:57;0.10;;;0.10;;
25187;SDS011;13141;50.414;8.050;2023-05-27T09:01:24;0.10;;;0.10;;
25187;SDS011;13141;50.414;8.050;2023-05-27T09:03:52;0.10;;;0.10;;
25187;SDS011;13141;50.414;8.050;2023-05-27T09:06:19;0.10;;;0.10;;
25187;SDS011;13141;50.414;8.050;2023-05-27T09:08:44;0.10;;;0.10;;
25187;SDS011;13141;50.414;8.050;2023-05-27T09:11:18;0.10;;;0.10;;
25187;SDS011;13141;50.414;8.050;2023-05-27T09:13:45;0.10;;;0.10;;
25187;SDS011;13141;50.414;8.050;2023-05-27T09:16:11;0.10;;;0.10;;
25187;SDS011;13141;50.414;8.050;2023-05-27T09:18:37;0.20;;;0.20;;
25187;SDS011;13141;50.414;8.050;2023-05-27T09:21:04;0.10;;;0.10;;
25187;SDS011;13141;50.414;8.050;2023-05-27T09:23:30;0.10;;;0.10;;
25187;SDS011;13141;50.414;8.050;2023-05-27T09:25:56;0.20;;;0.20;;
25187;SDS011;13141;50.414;8.050;2023-05-27T09:28:24;0.10;;;0.10;;
25187;SDS011;13141;50.414;8.050;2023-05-27T09:30:50;0.10;;;0.10;;
25187;SDS011;13141;50.414;8.050;2023-05-27T09:33:21;0.20;;;0.20;;
25187;SDS011;13141;50.414;8.050;2023-05-27T09:35:47;0.17;;;0.17;;
25187;SDS011;13141;50.414;8.050;2023-05-27T09:38:15;0.10;;;0.10;;
25187;SDS011;13141;50.414;8.050;2023-05-27T09:40:43;0.20;;;0.20;;
25187;SDS011;13141;50.414;8.050;2023-05-27T09:43:12;0.20;;;0.20;;
25187;SDS011;13141;50.414;8.050;2023-05-27T09:45:38;0.10;;;0.10;;
25187;SDS011;13141;50.414;8.050;2023-05-27T09:48:05;0.20;;;0.20;;
25187;SDS011;13141;50.414;8.050;2023-05-27T09:50:32;0.20;;;0.20;;
25187;SDS011;13141;50.414;8.050;2023-05-27T09:52:58;0.10;;;0.10;;
25187;SDS011;13141;50.414;8.050;2023-05-27T09:55:26;0.10;;;0.10;;
25187;SDS011;13141;50.414;8.050;2023-05-27T09:57:54;0.10;;;0.10;;
25187;SDS011;13141;50.414;8.050;2023-05-27T10:00:20;0.10;;;0.10;;
25187;SDS011;13141;50.414;8.050;2023-05-27T10:02:48;0.20;;;0.20;;
25187;SDS011;13141;50.414;8.050;2023-05-27T10:05:14;0.10;;;0.10;;
25187;SDS011;13141;50.414;8.050;2023-05-27T10:07:44;0.20;;;0.20;;
25187;SDS011;13141;50.414;8.050;2023-05-27T10:10:10;0.13;;;0.13;;
25187;SDS011;13141;50.414;8.050;2023-05-27T10:12:39;0.20;;;0.20;;
25187;SDS011;13141;50.414;8.050;2023-05-27T10:15:05;0.13;;;0.13;;
25187;SDS011;13141;50.414;8.050;2023-05-27T10:17:41;0.15;;;0.15;;
25187;SDS011;13141;50.414;8.050;2023-05-27T10:20:08;0.10;;;0.10;;
25187;SDS011;13141;50.414;8.050;2023-05-27T10:22:38;0.13;;;0.13;;
25187;SDS011;13141;50.414;8.050;2023-05-27T10:25:10;0.10;;;0.10;;
25187;SDS011;13141;50.414;8.050;2023-05-27T10:27:42;0.20;;;0.20;;
25187;SDS011;13141;50.414;8.050;2023-05-27T10:30:09;0.17;;;0.17;;
25187;SDS011;13141;50.414;8.050;2023-05-27T10:32:41;0.20;;;0.20;;
25187;SDS011;13141;50.414;8.050;2023-05-27T10:35:08;0.10;;;0.10;;
25187;SDS011;13141;50.414;8.050;2023-05-27T10:37:34;0.20;;;0.20;;
25187;SDS011;13141;50.414;8.050;2023-05-27T10:40:01;0.13;;;0.13;;
25187;SDS011;13141;50.414;8.050;2023-05-27T10:42:29;0.20;;;0.20;;
25187;SDS011;13141;50.414;8.050;2023-05-27T10:45:03;0.20;;;0.20;;
25187;SDS011;13141;50.414;8.050;2023-05-27T10:47:30;0.13;;;0.13;;
25187;SDS011;13141;50.414;8.050;2023-05-27T10:50:00;0.17;;;0.17;;
25187;SDS011;13141;50.414;8.050;2023-05-27T10:52:35;0.20;;;0.20;;
25187;SDS011;13141;50.414;8.050;2023-05-27T10:55:03;0.10;;;0.10;;
25187;SDS011;13141;50.414;8.050;2023-05-27T10:57:30;0.10;;;0.10;;
25187;SDS011;13141;50.414;8.050;2023-05-27T10:59:55;0.15;;;0.15;;
25187;SDS011;13141;50.414;8.050;2023-05-27T11:02:28;0.20;;;0.20;;
25187;SDS011;13141;50.414;8.050;2023-05-27T11:04:55;0.15;;;0.15;;
25187;SDS011;13141;50.414;8.050;2023-05-27T11:07:21;0.30;;;0.30;;
25187;SDS011;13141;50.414;8.050;2023-05-27T11:09:47;0.20;;;0.20;;
25187;SDS011;13141;50.414;8.050;2023-05-27T11:12:14;0.20;;;0.20;;
25187;SDS011;13141;50.414;8.050;2023-05-27T11:14:41;0.13;;;0.13;;
25187;SDS011;13141;50.414;8.050;2023-05-27T11:17:08;0.10;;;0.10;;
25187;SDS011;13141;50.414;8.050;2023-05-27T11:19:38;0.22;;;0.22;;
25187;SDS011;13141;50.414;8.050;2023-05-27T11:22:04;0.20;;;0.20;;
25187;SDS011;13141;50.414;8.050;2023-05-27T11:24:30;0.20;;;0.20;;
25187;SDS011;13141;50.414;8.050;2023-05-27T11:26:56;0.20;;;0.20;;
25187;SDS011;13141;50.414;8.050;2023-05-27T11:29:22;0.20;;;0.20;;
25187;SDS011;13141;50.414;8.050;2023-05-27T11:31:47;0.20;;;0.20;;
25187;SDS011;13141;50.414;8.050;2023-05-27T11:34:13;0.10;;;0.10;;
25187;SDS011;13141;50.414;8.050;2023-05-27T11:36:43;0.20;;;0.20;;
25187;SDS011;13141;50.414;8.050;2023-05-27T11:39:10;0.20;;;0.20;;
25187;SDS011;13141;50.414;8.050;2023-05-27T11:41:46;0.10;;;0.10;;
25187;SDS011;13141;50.414;8.050;2023-05-27T11:44:13;0.20;;;0.20;;
25187;SDS011;13141;50.414;8.050;2023-05-27T11:46:39;0.20;;;0.20;;
25187;SDS011;13141;50.414;8.050;2023-05-27T11:49:06;0.20;;;0.20;;
25187;SDS011;13141;50.414;8.050;2023-05-27T11:51:33;0.20;;;0.20;;
25187;SDS011;13141;50.414;8.050;2023-05-27T11:54:00;0.20;;;0.20;;
25187;SDS011;13141;50.414;8.050;2023-05-27T11:56:26;0.20;;;0.20;;
25187;SDS011;13141;50.414;8.050;2023-05-27T11:58:52;0.30;;;0.30;;
25187;SDS011;13141;50.414;8.050;2023-05-27T12:01:17;0.20;;;0.20;;
25187;SDS011;13141;50.414;8.050;2023-05-27T12:03:46;0.30;;;0.30;;
25187;SDS011;13141;50.414;8.050;2023-05-27T12:06:13;0.20;;;0.20;;
25187;SDS011;13141;50.414;8.050;2023-05-27T12:08:40;0.20;;;0.20;;
25187;SDS011;13141;50.414;8.050;2023-05-27T12:11:07;0.20;;;0.20;;
25187;SDS011;13141;50.414;8.050;2023-05-27T12:13:33;0.30;;;0.30;;
25187;SDS011;13141;50.414;8.050;2023-05-27T12:15:59;0.25;;;0.25;;
25187;SDS011;13141;50.414;8.050;2023-05-27T12:18:24;0.30;;;0.30;;
25187;SDS011;13141;50.414;8.050;2023-05-27T12:20:50;0.20;;;0.20;;
25187;SDS011;13141;50.414;8.050;2023-05-27T12:23:16;0.22;;;0.22;;
25187;SDS011;13141;50.414;8.050;2023-05-27T12:25:42;0.20;;;0.20;;
25187;SDS011;13141;50.414;8.050;2023-05-27T12:28:09;0.20;;;0.20;;
25187;SDS011;13141;50.414;8.050;2023-05-27T12:30:35;0.20;;;0.20;;
25187;SDS011;13141;50.414;8.050;2023-05-27T12:33:01;0.20;;;0.20;;
25187;SDS011;13141;50.414;8.050;2023-05-27T12:35:27;0.20;;;0.20;;
25187;SDS011;13141;50.414;8.050;2023-05-27T12:37:53;0.30;;;0.30;;
25187;SDS011;13141;50.414;8.050;2023-05-27T12:40:19;0.20;;;0.20;;
25187;SDS011;13141;50.414;8.050;2023-05-27T12:42:44;0.20;;;0.20;;
25187;SDS011;13141;50.414;8.050;2023-05-27T12:45:11;0.10;;;0.10;;
25187;SDS011;13141;50.414;8.050;2023-05-27T12:47:37;0.20;;;0.20;;
25187;SDS011;13141;50.414;8.050;2023-05-27T12:50:03;0.20;;;0.20;;
25187;SDS011;13141;50.414;8.050;2023-05-27T12:52:29;0.20;;;0.20;;
25187;SDS011;13141;50.414;8.050;2023-05-27T12:54:55;0.20;;;0.20;;
25187;SDS011;13141;50.414;8.050;2023-05-27T12:57:20;0.20;;;0.20;;
25187;SDS011;13141;50.414;8.050;2023-05-27T12:59:46;0.20;;;0.20;;
25187;SDS011;13141;50.414;8.050;2023-05-27T13:02:13;0.20;;;0.20;;
25187;SDS011;13141;50.414;8.050;2023-05-27T13:04:39;0.30;;;0.30;;
25187;SDS011;13141;50.414;8.050;2023-05-27T13:07:04;0.20;;;0.20;;
25187;SDS011;13141;50.414;8.050;2023-05-27T13:09:30;0.20;;;0.20;;
25187;SDS011;13141;50.414;8.050;2023-05-27T13:11:56;0.20;;;0.20;;
25187;SDS011;13141;50.414;8.050;2023-05-27T13:14:21;0.20;;;0.20;;
25187;SDS011;13141;50.414;8.050;2023-05-27T13:16:47;0.20;;;0.20;;
25187;SDS011;13141;50.414;8.050;2023-05-27T13:19:14;0.30;;;0.30;;
25187;SDS011;13141;50.414;8.050;2023-05-27T13:21:40;0.20;;;0.20;;
25187;SDS011;13141;50.414;8.050;2023-05-27T13:24:06;0.20;;;0.20;;
25187;SDS011;13141;50.414;8.050;2023-05-27T13:26:31;0.20;;;0.20;;
25187;SDS011;13141;50.414;8.050;2023-05-27T13:28:57;0.30;;;0.30;;
25187;SDS011;13141;50.414;8.050;2023-05-27T13:31:22;0.30;;;0.30;;
25187;SDS011;13141;50.414;8.050;2023-05-27T13:33:48;0.30;;;0.30;;
25187;SDS011;13141;50.414;8.050;2023-05-27T13:36:15;0.30;;;0.30;;
25187;SDS011;13141;50.414;8.050;2023-05-27T13:38:41;0.20;;;0.20;;
25187;SDS011;13141;50.414;8.050;2023-05-27T13:41:07;0.20;;;0.20;;
25187;SDS011;13141;50.414;8.050;2023-05-27T13:43:32;0.25;;;0.25;;
25187;SDS011;13141;50.414;8.050;2023-05-27T13:45:58;0.30;;;0.30;;
25187;SDS011;13141;50.414;8.050;2023-05-27T13:48:24;0.20;;;0.20;;
25187;SDS011;13141;50.414;8.050;2023-05-27T13:50:49;0.22;;;0.22;;
25187;SDS011;13141;50.414;8.050;2023-05-27T13:53:16;0.20;;;0.20;;
25187;SDS011;13141;50.414;8.050;2023-05-27T13:55:42;0.20;;;0.20;;
25187;SDS011;13141;50.414;8.050;2023-05-27T13:58:08;0.20;;;0.20;;
25187;SDS011;13141;50.414;8.050;2023-05-27T14:00:33;0.20;;;0.20;;
25187;SDS011;13141;50.414;8.050;2023-05-27T14:02:59;0.20;;;0.20;;
25187;SDS011;13141;50.414;8.050;2023-05-27T14:05:25;0.30;;;0.30;;
25187;SDS011;13141;50.414;8.050;2023-05-27T14:07:50;0.30;;;0.30;;
25187;SDS011;13141;50.414;8.050;2023-05-27T14:10:17;0.22;;;0.22;;
25187;SDS011;13141;50.414;8.050;2023-05-27T14:12:43;0.35;;;0.35;;
25187;SDS011;13141;50.414;8.050;2023-05-27T14:15:09;0.20;;;0.20;;
25187;SDS011;13141;50.414;8.050;2023-05-27T14:17:40;0.20;;;0.20;;
25187;SDS011;13141;50.414;8.050;2023-05-27T14:20:06;0.20;;;0.20;;
25187;SDS011;13141;50.414;8.050;2023-05-27T14:22:32;0.35;;;0.35;;
25187;SDS011;13141;50.414;8.050;2023-05-27T14:24:58;0.20;;;0.20;;
25187;SDS011;13141;50.414;8.050;2023-05-27T14:27:25;0.30;;;0.30;;
25187;SDS011;13141;50.414;8.050;2023-05-27T14:29:50;0.30;;;0.30;;
25187;SDS011;13141;50.414;8.050;2023-05-27T14:32:16;0.20;;;0.20;;
25187;SDS011;13141;50.414;8.050;2023-05-27T14:34:42;0.30;;;0.30;;
25187;SDS011;13141;50.414;8.050;2023-05-27T14:37:07;0.20;;;0.20;;
25187;SDS011;13141;50.414;8.050;2023-05-27T14:39:35;0.20;;;0.20;;
25187;SDS011;13141;50.414;8.050;2023-05-27T14:42:00;0.28;;;0.28;;
25187;SDS011;13141;50.414;8.050;2023-05-27T14:44:27;0.25;;;0.25;;